Aeroporto :
LOGIN :

Iscrizione | Disclaimer

   EN    FR    IT 

 










Sommario :    VFR   VFR Marginale   IFR   IFR Intensivo   IFR Molto Intensivo
Visibilità : 
Base nubi : 
>= 8 km
>= 3000ft
5 / 8 km
1000 / 3000 ft
1500m / 5 km
500 / 1000 ft
800 / 1500m
200 / 500 ft
< 800m
< 200 ft
Simboli :   Temporali  Nebbia  Neve Forte  Precipitazioni Forti  Vento > 20 kt
SIGMETs :   Varie  Temporali  Ghiacco  Turbolenza  Onda orograficha  Ceneri Vulcaniche






- Altitudine del aeroporto : 194 ft
- Codice IATA : IEG


EPZG - Zielona Gora Babimost

ULTIMO METAR :
  • 251000Z 22012KT 1700 -DZ BR OVC004 00/M00 Q1022

METARs OBSOLETI :
  • 250930Z 22013KT 1600 -DZ BR OVC003 M00/M00 Q1022
  • 250900Z 23011KT 1600 -DZ BR OVC003 M00/M00 Q1022
  • 250830Z 22014KT 1800 -DZ BR OVC003 M00/M01 Q1022
  • 250800Z 22013KT 1800 -DZ BR OVC003 M01/M01 Q1022
  • 250730Z 22010KT 1800 -DZ BR OVC003 M01/M01 Q1021

TAF TAF EPZG
Valido dal 25 a 09 ore il 25 a 18 ore UTC


250830Z 2509/2518 23010KT 2500 -DZ BR OVC003
TEMPO 2509/2511 1400 -FZDZ BR BKN001
TEMPO 2511/2515 5000 BR BKN007



MetMap, La meteo Aeronautica in un colpo d'occhio ! - Copyright ORBIFLY Dicembre 2007 - Disclaimer

ORBIFLY MET'MAP TEAM :

Programmazione e sviluppo : Alexandra Zaïnal
Concezione : Baudouin d'Aumeries
Aiuto per la programmazione : Marc-Olivier Méhu
Supporto tecnico e logistico : Manuel Goepfert
Aiuto per la traduzione : Arnaldo La Scala

Contatto : metmap@orbifly.com




FONTI E CREDITI :

   NOAA